History for Boise, ID


Lat: N 43 ° 36 ' 50 '' ( 43.614 ° )
Lon: W 116 ° 12 ' 14 '' ( -116.204 ° )

Elevation: 2847 ft
Data type:
Distance calculator

 
 

Select another date:

« Previous Day   |   Next Day »

Daily Statistics
  Current High Low Average
Temperature - 37.0 °F 26.0 °F 31.5 °F
Dew Point - 23.0 °F 20.0 °F 21.1 °F
Humidity % 79% 55% 70%
Wind Speed - 0.0mph - 0.0mph
Wind Gust - 3.0mph - -
Wind - - South
Pressure - 27.62in 27.58in -
Precipitation 0.00in      

Tabular Data for March 6, 2015
Time Temperature Dew Point Pressure Wind Wind Speed Wind Gust Humidity Hourly Precipitation
00:02 35.0 °F 23.0 °F 27.58in ESE 0.0mph 0.0mph 60% 0.00in
00:22 37.0 °F 22.0 °F 27.58in ESE 0.0mph 3.0mph 55% 0.00in
00:32 37.0 °F 22.0 °F 27.58in ESE 0.0mph 3.0mph 55% 0.00in
00:42 37.0 °F 22.0 °F 27.58in ESE 0.0mph 3.0mph 55% 0.00in
00:52 37.0 °F 22.0 °F 27.58in ESE 0.0mph 3.0mph 55% 0.00in
01:02 37.0 °F 22.0 °F 27.58in ESE 0.0mph 3.0mph 55% 0.00in
01:22 33.0 °F 21.0 °F 27.58in SE 0.0mph 0.0mph 60% 0.00in
01:32 33.0 °F 21.0 °F 27.58in SE 0.0mph 0.0mph 60% 0.00in
01:42 33.0 °F 21.0 °F 27.58in SE 0.0mph 0.0mph 60% 0.00in
01:52 33.0 °F 21.0 °F 27.58in SE 0.0mph 0.0mph 60% 0.00in
02:02 33.0 °F 21.0 °F 27.58in SE 0.0mph 0.0mph 60% 0.00in
02:03 31.0 °F 22.0 °F 27.59in West 0.0mph 0.0mph 68% 0.00in
02:22 31.0 °F 22.0 °F 27.59in West 0.0mph 0.0mph 68% 0.00in
02:33 31.0 °F 22.0 °F 27.59in West 0.0mph 0.0mph 68% 0.00in
02:43 31.0 °F 22.0 °F 27.59in West 0.0mph 0.0mph 68% 0.00in
02:53 31.0 °F 22.0 °F 27.59in West 0.0mph 0.0mph 68% 0.00in
04:23 27.0 °F 20.0 °F 27.58in WSW 0.0mph 0.0mph 75% 0.00in
04:32 27.0 °F 20.0 °F 27.58in WSW 0.0mph 0.0mph 75% 0.00in
04:42 27.0 °F 20.0 °F 27.58in WSW 0.0mph 0.0mph 75% 0.00in
04:52 27.0 °F 20.0 °F 27.58in WSW 0.0mph 0.0mph 75% 0.00in
05:02 27.0 °F 20.0 °F 27.58in WSW 0.0mph 0.0mph 75% 0.00in
05:22 26.0 °F 20.0 °F 27.60in SE 0.0mph 0.0mph 79% 0.00in
05:33 26.0 °F 20.0 °F 27.60in SE 0.0mph 0.0mph 79% 0.00in
05:43 26.0 °F 20.0 °F 27.60in SE 0.0mph 0.0mph 79% 0.00in
05:52 26.0 °F 20.0 °F 27.60in SE 0.0mph 0.0mph 79% 0.00in
06:22 27.0 °F 21.0 °F 27.60in East 0.0mph 0.0mph 78% 0.00in
06:32 27.0 °F 21.0 °F 27.60in East 0.0mph 0.0mph 78% 0.00in
06:42 27.0 °F 21.0 °F 27.60in East 0.0mph 0.0mph 78% 0.00in
06:52 27.0 °F 21.0 °F 27.60in East 0.0mph 0.0mph 78% 0.00in
07:01 27.0 °F 21.0 °F 27.60in East 0.0mph 0.0mph 78% 0.00in
08:22 27.0 °F 21.0 °F 27.62in SSE 0.0mph 0.0mph 79% 0.00in
08:32 27.0 °F 21.0 °F 27.62in SSE 0.0mph 0.0mph 79% 0.00in
08:43 27.0 °F 21.0 °F 27.62in SSE 0.0mph 0.0mph 79% 0.00in
08:54 27.0 °F 21.0 °F 27.62in SSE 0.0mph 0.0mph 79% 0.00in

Powered by the Weather Underground, Inc.